• Join FlightAware (Why Join?)
  • Login
  • US Flag 
Rudolph Flight #1: Arrived! 
02:18PM EST


 

Airport Tracker/Info


-or-


 

Live Flight TrackerFlight Track Log ✈ TAM3909 ✈ 21-Oct-2013 ✈ SBRJ / SDU - SBSP / CGH

Flight Track Log - Related Links

Times and Time Zones

All times are in EDT time to prevent confusion due to time zone crossing. See the TAM3909 flight status page for this flight to view local times or setup timezone preferences in your user account.

Time Position Orientation Groundspeed Altitude Reporting Facility
EDT Latitude Longitude Course Direction KTS MPH feet Rate Location/Type
06:31AM -23.0744 -43.9270 257° West  Level Estimated
06:32AM -23.0891 -43.9965 257° West  Level Estimated
06:33AM -23.1038 -44.0661 257° West  Level Estimated
06:34AM -23.1185 -44.1356 257° West  Level Estimated
06:35AM -23.1331 -44.2052 257° West  Level Estimated
06:36AM -23.1477 -44.2748 257° West  Level Estimated
06:37AM -23.1623 -44.3444 257° West  Level Estimated
06:38AM -23.1768 -44.4140 257° West  Level Estimated
06:39AM -23.1913 -44.4837 257° West  Level Estimated
06:40AM -23.2058 -44.5533 257° West  Level Estimated
06:41AM -23.2202 -44.6230 257° West  Level Estimated
06:42AM -23.2346 -44.6927 257° West  Level Estimated
06:43AM -23.2490 -44.7624 257° West  Level Estimated
06:44AM -23.2633 -44.8321 257° West  Level Estimated
06:45AM -23.2777 -44.9018 257° West  Level Estimated
06:46AM -23.2920 -44.9715 257° West  Level Estimated
06:47AM -23.3062 -45.0413 257° West  Level Estimated
06:48AM -23.3204 -45.1111 257° West  Level Estimated
06:49AM -23.3347 -45.1809 257° West  Level Estimated
06:50AM -23.3488 -45.2507 258° West  Level Estimated
06:51AM -23.3630 -45.3205 258° West  Level Estimated
06:52AM -23.3771 -45.3903 258° West  Level Estimated
06:53AM -23.3911 -45.4602 258° West  Level Estimated
06:54AM -23.4052 -45.5300 258° West  Level Estimated
06:55AM -23.4192 -45.5999 258° West  Level Estimated
06:56AM -23.4332 -45.6698 258° West  Level Estimated
06:57AM -23.4471 -45.7397 258° West  Level Estimated
06:58AM -23.4610 -45.8096 258° West  Level Estimated
06:59AM -23.4749 -45.8796 258° West  Level Estimated
07:00AM -23.4888 -45.9495 258° West  Level Estimated
07:01AM -23.5026 -46.0195 258° West  Level Estimated
07:02AM -23.5164 -46.0895 258° West  Level Estimated
07:03AM -23.5302 -46.1595 258° West  Level Estimated
07:04AM -23.5439 -46.2295 258° West  Level Estimated
07:05AM -23.5576 -46.2995 258° West  Level Estimated
07:06AM -23.5713 -46.3695 258° West  Level Estimated
07:07AM -23.5849 -46.4396 258° West  Level Estimated
07:08AM -23.5985 -46.5097 258° West  Level Estimated
07:09AM -23.6121 -46.5797 258° West  Level Estimated
07:10AM -23.6256 -46.6498 258° West  Level Estimated
07:11AM -23.6267 -46.6554 258° West  Level Estimated
07:12AM -23.6267 -46.6554 114° Southeast  Level Estimated
07:13AM -23.6267 -46.6554 114° Southeast  Level Estimated
07:14AM -23.6267 -46.6554 114° Southeast  Level Estimated
07:15AM -23.6267 -46.6554 114° Southeast  Level Estimated
07:16AM -23.6267 -46.6554 114° Southeast  Level Estimated
07:17AM -23.6267 -46.6554 114° Southeast  Level Estimated
07:18AM -23.6267 -46.6554 114° Southeast  Level Estimated
07:19AM -23.6267 -46.6554 114° Southeast  Level Estimated
07:20AM -23.6267 -46.6554 114° Southeast  Level Estimated
07:21AM -23.6267 -46.6554 114° Southeast  Level Estimated
07:22AM -23.6267 -46.6554 114° Southeast  Level Estimated
07:23AM -23.6267 -46.6554 114° Southeast  Level Estimated
07:24AM -23.6267 -46.6554 114° Southeast  Level Estimated
07:25AM -23.6267 -46.6554 114° Southeast  Level Estimated
07:26AM -23.6267 -46.6554 114° Southeast  Level Estimated